Time;durP1;ratioP1;P1;durP2;ratioP2;P2;SDS_P1;SDS_P2;PMS_P1;PMS_P2;Temp;Humidity;BMP_temperature;BMP_pressure;BME280_temperature;BME280_humidity;BME280_pressure;Samples;Min_cycle;Max_cycle;Signal;HPM_P1;HPM_P2
2023/06/22 00:00:17;;;;;;;11.50;11.00;;;;;;;;;;4988086;28;20091;-62
2023/06/22 00:02:42;;;;;;;11.57;11.07;;;;;;;;;;4993138;28;20015;-62
2023/06/22 00:05:07;;;;;;;12.25;11.65;;;;;;;;;;4990200;28;20035;-62
2023/06/22 00:07:32;;;;;;;12.00;11.40;;;;;;;;;;4994281;28;20026;-62
2023/06/22 00:09:58;;;;;;;11.65;11.15;;;;;;;;;;4989510;28;20541;-63
2023/06/22 00:12:23;;;;;;;13.43;12.73;;;;;;;;;;4988809;28;20031;-63
2023/06/22 00:14:48;;;;;;;14.82;14.00;;;;;;;;;;4978936;28;20121;-63
2023/06/22 00:17:14;;;;;;;12.20;11.60;;;;;;;;;;4992834;28;20392;-63
2023/06/22 00:19:40;;;;;;;11.95;11.35;;;;;;;;;;4989135;28;20114;-63
2023/06/22 00:22:05;;;;;;;11.50;11.00;;;;;;;;;;4998998;28;20041;-63
2023/06/22 00:24:30;;;;;;;11.35;10.85;;;;;;;;;;4988507;28;20030;-62
2023/06/22 00:26:56;;;;;;;11.90;11.30;;;;;;;;;;4988384;28;20023;-62
2023/06/22 00:29:21;;;;;;;11.30;10.80;;;;;;;;;;4993371;28;20022;-62
2023/06/22 00:31:46;;;;;;;11.65;11.15;;;;;;;;;;4992179;28;20553;-61
2023/06/22 00:34:12;;;;;;;11.50;11.00;;;;;;;;;;4987452;28;20121;-62
2023/06/22 00:36:37;;;;;;;12.73;12.13;;;;;;;;;;4992577;28;20026;-62
2023/06/22 00:39:03;;;;;;;11.48;10.98;;;;;;;;;;4987858;28;20048;-62
2023/06/22 00:41:28;;;;;;;11.38;10.88;;;;;;;;;;4992974;28;20025;-62
2023/06/22 00:43:54;;;;;;;11.75;11.20;;;;;;;;;;4985829;28;20026;-62
2023/06/22 00:46:19;;;;;;;11.50;11.00;;;;;;;;;;4985932;28;20014;-62
2023/06/22 00:48:44;;;;;;;11.93;11.32;;;;;;;;;;4990847;28;20085;-62
2023/06/22 00:51:10;;;;;;;11.60;11.10;;;;;;;;;;4993084;28;20057;-62
2023/06/22 00:53:36;;;;;;;12.38;11.77;;;;;;;;;;4996122;28;20060;-61
2023/06/22 00:56:03;;;;;;;11.48;10.98;;;;;;;;;;4990935;28;20029;-61
2023/06/22 00:58:28;;;;;;;11.27;10.77;;;;;;;;;;4994359;28;20032;-61
2023/06/22 01:00:54;;;;;;;12.27;11.68;;;;;;;;;;4989207;28;20034;-61
2023/06/22 01:03:20;;;;;;;12.18;11.57;;;;;;;;;;4989678;28;20023;-61
2023/06/22 01:05:46;;;;;;;12.27;11.68;;;;;;;;;;4986028;28;20026;-61
2023/06/22 01:08:11;;;;;;;11.90;11.30;;;;;;;;;;4989370;28;20053;-61
2023/06/22 01:10:46;;;;;;;11.45;10.95;;;;;;;;;;4992989;28;20046;-61
2023/06/22 01:13:11;;;;;;;;;;;;;;;;;;4981509;28;20375;-61
2023/06/22 01:15:39;;;;;;;12.47;11.87;;;;;;;;;;4992469;28;19912;-63
2023/06/22 01:18:05;;;;;;;12.10;11.50;;;;;;;;;;4991841;28;20388;-61
2023/06/22 01:20:32;;;;;;;11.48;10.98;;;;;;;;;;4992408;28;20389;-61
2023/06/22 01:23:15;;;;;;;12.48;11.88;;;;;;;;;;4984111;28;20047;-61
2023/06/22 01:25:43;;;;;;;12.40;11.80;;;;;;;;;;4987257;28;20502;-61
2023/06/22 01:28:09;;;;;;;11.30;10.80;;;;;;;;;;4987643;28;20085;-62
2023/06/22 01:30:34;;;;;;;11.95;11.38;;;;;;;;;;4991016;28;20495;-61
2023/06/22 01:33:01;;;;;;;11.77;11.27;;;;;;;;;;4992479;28;20030;-61
2023/06/22 01:35:26;;;;;;;11.52;11.02;;;;;;;;;;4988891;28;20018;-61
2023/06/22 01:37:52;;;;;;;11.90;11.30;;;;;;;;;;4989840;28;20034;-61
2023/06/22 01:40:18;;;;;;;11.43;10.93;;;;;;;;;;4987639;28;20037;-61
2023/06/22 01:42:44;;;;;;;12.20;11.60;;;;;;;;;;4991971;28;20026;-61
2023/06/22 01:45:10;;;;;;;11.70;11.20;;;;;;;;;;4991045;28;20026;-61
2023/06/22 01:47:35;;;;;;;12.15;11.55;;;;;;;;;;4991372;28;20050;-61
2023/06/22 01:50:01;;;;;;;11.57;11.07;;;;;;;;;;4988682;28;20054;-61
2023/06/22 01:52:26;;;;;;;12.00;11.40;;;;;;;;;;4988578;28;20268;-61
2023/06/22 01:54:51;;;;;;;11.75;11.23;;;;;;;;;;4989245;28;20038;-61
2023/06/22 01:57:17;;;;;;;12.10;11.50;;;;;;;;;;4992728;28;20022;-61
2023/06/22 01:59:57;;;;;;;12.10;11.50;;;;;;;;;;4986089;28;20031;-61
2023/06/22 02:02:26;;;;;;;11.88;11.27;;;;;;;;;;4987648;28;20018;-61
2023/06/22 02:04:57;;;;;;;11.95;11.35;;;;;;;;;;4986970;28;20104;-60
2023/06/22 02:07:23;;;;;;;11.88;11.30;;;;;;;;;;4984114;28;20022;-61
2023/06/22 02:09:50;;;;;;;12.25;11.65;;;;;;;;;;4989706;28;20081;-60
2023/06/22 02:12:17;;;;;;;11.63;11.13;;;;;;;;;;4990340;28;20034;-60
2023/06/22 02:14:42;;;;;;;11.50;11.00;;;;;;;;;;4992029;28;20363;-61
2023/06/22 02:17:09;;;;;;;12.13;11.52;;;;;;;;;;4986639;28;20084;-60
2023/06/22 02:19:37;;;;;;;12.10;11.50;;;;;;;;;;4990163;28;20033;-61
2023/06/22 02:22:03;;;;;;;12.00;11.40;;;;;;;;;;4989425;28;20032;-62
2023/06/22 02:24:30;;;;;;;12.10;11.50;;;;;;;;;;4989595;28;20018;-61
2023/06/22 02:26:57;;;;;;;11.98;11.38;;;;;;;;;;4981308;28;20030;-62
2023/06/22 02:29:23;;;;;;;11.93;11.32;;;;;;;;;;4991559;28;20084;-62
2023/06/22 02:31:48;;;;;;;11.80;11.20;;;;;;;;;;4986874;28;20022;-62
2023/06/22 02:34:17;;;;;;;11.60;11.10;;;;;;;;;;4991635;28;20037;-62
2023/06/22 02:36:50;;;;;;;13.93;13.18;;;;;;;;;;4977136;28;20393;-62
2023/06/22 02:39:16;;;;;;;11.25;10.75;;;;;;;;;;4984308;28;20121;-62
2023/06/22 02:41:42;;;;;;;11.60;11.10;;;;;;;;;;4991725;28;20100;-61
2023/06/22 02:44:07;;;;;;;12.00;11.40;;;;;;;;;;4990647;28;20027;-62
2023/06/22 02:46:32;;;;;;;11.60;11.10;;;;;;;;;;4988516;28;20027;-60
2023/06/22 02:48:58;;;;;;;12.10;11.50;;;;;;;;;;4991165;28;20033;-61
2023/06/22 02:51:23;;;;;;;11.60;11.07;;;;;;;;;;4990993;28;20470;-61
2023/06/22 02:53:52;;;;;;;11.90;11.30;;;;;;;;;;4991268;28;20054;-60
2023/06/22 02:56:17;;;;;;;11.82;11.30;;;;;;;;;;4986524;28;20161;-61
2023/06/22 02:58:42;;;;;;;11.85;11.25;;;;;;;;;;4990812;28;20106;-61
2023/06/22 03:01:09;;;;;;;12.10;11.50;;;;;;;;;;4990853;28;20037;-61
2023/06/22 03:03:35;;;;;;;12.10;11.50;;;;;;;;;;4988348;28;20026;-61
2023/06/22 03:06:03;;;;;;;12.38;11.77;;;;;;;;;;4984734;28;20026;-60
2023/06/22 03:08:28;;;;;;;11.73;11.23;;;;;;;;;;4984560;28;20023;-60
2023/06/22 03:10:54;;;;;;;12.50;11.90;;;;;;;;;;4990990;28;20081;-60
2023/06/22 03:13:19;;;;;;;11.85;11.32;;;;;;;;;;4986505;28;20367;-60
2023/06/22 03:15:45;;;;;;;12.30;11.70;;;;;;;;;;4990927;28;20116;-62
2023/06/22 03:18:11;;;;;;;12.40;11.80;;;;;;;;;;4990738;28;20117;-61
2023/06/22 03:20:36;;;;;;;12.40;11.80;;;;;;;;;;4991123;28;20125;-61
2023/06/22 03:23:01;;;;;;;12.13;11.52;;;;;;;;;;4987667;28;20508;-60
2023/06/22 03:25:27;;;;;;;11.80;11.30;;;;;;;;;;4995071;28;20053;-61
2023/06/22 03:27:52;;;;;;;11.88;11.38;;;;;;;;;;4993271;28;20510;-60
2023/06/22 03:30:17;;;;;;;13.32;12.73;;;;;;;;;;4982893;28;20018;-59
2023/06/22 03:32:43;;;;;;;11.90;11.40;;;;;;;;;;4991054;28;20398;-61
2023/06/22 03:35:08;;;;;;;11.80;11.30;;;;;;;;;;4994320;28;20276;-61
2023/06/22 03:37:34;;;;;;;11.73;11.23;;;;;;;;;;4989392;28;20035;-61
2023/06/22 03:39:59;;;;;;;11.80;11.30;;;;;;;;;;4986885;28;20041;-60
2023/06/22 03:42:25;;;;;;;11.50;11.00;;;;;;;;;;4992376;28;20034;-60
2023/06/22 03:44:51;;;;;;;11.43;10.93;;;;;;;;;;4994074;28;20035;-60
2023/06/22 03:47:16;;;;;;;11.82;11.32;;;;;;;;;;4985970;28;20027;-61
2023/06/22 03:49:42;;;;;;;11.70;11.20;;;;;;;;;;4989197;28;20109;-61
2023/06/22 03:52:07;;;;;;;11.50;11.00;;;;;;;;;;4987359;28;20485;-61
2023/06/22 03:54:33;;;;;;;11.57;11.07;;;;;;;;;;4993864;28;20279;-61
2023/06/22 03:56:58;;;;;;;11.97;11.47;;;;;;;;;;4991570;28;20033;-61
2023/06/22 03:59:24;;;;;;;11.55;11.05;;;;;;;;;;4988520;28;20304;-61
2023/06/22 04:01:50;;;;;;;12.10;11.60;;;;;;;;;;4989164;28;20037;-61
2023/06/22 04:04:15;;;;;;;11.35;10.85;;;;;;;;;;4988803;28;20106;-60
2023/06/22 04:06:41;;;;;;;11.60;11.10;;;;;;;;;;4989911;28;20132;-61
2023/06/22 04:09:06;;;;;;;11.97;11.47;;;;;;;;;;4991946;28;20749;-61
2023/06/22 04:11:32;;;;;;;11.60;11.10;;;;;;;;;;4993307;28;20260;-61
2023/06/22 04:13:57;;;;;;;12.02;11.52;;;;;;;;;;4993676;28;20114;-61
2023/06/22 04:16:22;;;;;;;11.90;11.40;;;;;;;;;;4993507;28;20026;-61
2023/06/22 04:18:47;;;;;;;12.05;11.55;;;;;;;;;;4988098;28;20098;-61
2023/06/22 04:21:13;;;;;;;11.83;11.33;;;;;;;;;;4993095;28;20057;-61
2023/06/22 04:23:38;;;;;;;11.65;11.15;;;;;;;;;;4993331;28;20280;-61
2023/06/22 04:26:03;;;;;;;12.20;11.70;;;;;;;;;;4990270;28;20493;-62
2023/06/22 04:28:29;;;;;;;11.97;11.47;;;;;;;;;;4989894;28;20334;-61
2023/06/22 04:30:58;;;;;;;11.95;11.45;;;;;;;;;;4989381;28;20279;-61
2023/06/22 04:33:23;;;;;;;12.00;11.50;;;;;;;;;;4989569;28;20030;-61
2023/06/22 04:35:48;;;;;;;11.90;11.40;;;;;;;;;;4986201;28;20026;-62
2023/06/22 04:38:14;;;;;;;12.00;11.50;;;;;;;;;;4988000;28;20715;-61
2023/06/22 04:40:39;;;;;;;12.50;11.90;;;;;;;;;;4984409;28;20050;-60
2023/06/22 04:43:06;;;;;;;11.70;11.20;;;;;;;;;;4985471;28;20120;-60
2023/06/22 04:45:32;;;;;;;12.20;11.70;;;;;;;;;;4991875;28;20022;-60
2023/06/22 04:47:57;;;;;;;12.00;11.50;;;;;;;;;;4984151;28;20106;-61
2023/06/22 04:50:23;;;;;;;12.10;11.60;;;;;;;;;;4989426;28;20476;-61
2023/06/22 04:52:49;;;;;;;12.07;11.57;;;;;;;;;;4990398;28;20034;-61
2023/06/22 04:55:18;;;;;;;12.23;11.73;;;;;;;;;;4985881;28;20026;-61
2023/06/22 04:57:49;;;;;;;11.98;11.48;;;;;;;;;;4980940;28;20064;-62
2023/06/22 05:00:19;;;;;;;11.60;11.10;;;;;;;;;;4984636;28;20030;-63
2023/06/22 05:02:45;;;;;;;11.90;11.40;;;;;;;;;;4983301;28;20065;-62
2023/06/22 05:05:13;;;;;;;12.13;11.63;;;;;;;;;;4987953;28;20367;-63
2023/06/22 05:07:39;;;;;;;12.10;11.60;;;;;;;;;;4988364;28;20033;-62
2023/06/22 05:10:05;;;;;;;11.80;11.30;;;;;;;;;;4990972;28;20202;-62
2023/06/22 05:12:30;;;;;;;11.85;11.35;;;;;;;;;;4986364;28;20161;-62
2023/06/22 05:14:56;;;;;;;11.95;11.45;;;;;;;;;;4991662;28;20023;-61
2023/06/22 05:17:21;;;;;;;11.75;11.25;;;;;;;;;;4989894;28;20018;-63
2023/06/22 05:19:49;;;;;;;11.95;11.45;;;;;;;;;;4990210;28;20018;-63
2023/06/22 05:22:15;;;;;;;11.80;11.30;;;;;;;;;;4985387;28;20023;-62
2023/06/22 05:24:40;;;;;;;11.90;11.40;;;;;;;;;;4989159;28;20434;-62
2023/06/22 05:27:06;;;;;;;12.10;11.60;;;;;;;;;;4985063;28;20113;-60
2023/06/22 05:29:31;;;;;;;11.65;11.15;;;;;;;;;;4986525;28;20138;-62
2023/06/22 05:31:56;;;;;;;11.90;11.40;;;;;;;;;;4980396;28;20482;-62
2023/06/22 05:34:22;;;;;;;11.95;11.45;;;;;;;;;;4985498;28;20027;-62
2023/06/22 05:36:47;;;;;;;11.93;11.43;;;;;;;;;;4982845;28;20030;-61
2023/06/22 05:39:14;;;;;;;11.68;11.18;;;;;;;;;;4981475;28;20335;-62
2023/06/22 05:41:40;;;;;;;11.43;10.93;;;;;;;;;;4992360;28;20046;-62
2023/06/22 05:44:05;;;;;;;11.70;11.20;;;;;;;;;;4985139;28;20653;-62
2023/06/22 05:46:30;;;;;;;11.63;11.13;;;;;;;;;;4975195;28;20026;-62
2023/06/22 05:48:56;;;;;;;11.82;11.32;;;;;;;;;;4980533;28;20268;-62
2023/06/22 05:51:21;;;;;;;11.60;11.10;;;;;;;;;;4985196;28;20446;-62
2023/06/22 05:53:49;;;;;;;11.40;10.90;;;;;;;;;;4984981;28;20105;-62
2023/06/22 05:56:15;;;;;;;11.55;11.05;;;;;;;;;;4982691;28;20413;-61
2023/06/22 05:58:40;;;;;;;11.50;11.00;;;;;;;;;;4979099;28;20097;-62
2023/06/22 06:01:05;;;;;;;11.90;11.40;;;;;;;;;;4979649;28;20545;-62
2023/06/22 06:03:30;;;;;;;11.50;11.00;;;;;;;;;;4984803;28;20019;-62
2023/06/22 06:05:56;;;;;;;11.87;11.37;;;;;;;;;;4988369;28;20252;-62
2023/06/22 06:08:21;;;;;;;11.90;11.40;;;;;;;;;;4986139;28;20052;-62
2023/06/22 06:10:46;;;;;;;11.93;11.43;;;;;;;;;;4982778;28;20474;-62
2023/06/22 06:13:12;;;;;;;12.20;11.70;;;;;;;;;;4984316;28;20026;-63
2023/06/22 06:15:38;;;;;;;12.57;11.97;;;;;;;;;;4979524;28;20030;-63
2023/06/22 06:18:04;;;;;;;12.20;11.70;;;;;;;;;;4982328;28;20044;-62
2023/06/22 06:20:31;;;;;;;12.13;11.63;;;;;;;;;;4983421;28;20033;-61
2023/06/22 06:22:56;;;;;;;12.35;11.82;;;;;;;;;;4978793;28;20429;-62
2023/06/22 06:25:22;;;;;;;12.55;11.95;;;;;;;;;;4986416;28;20033;-62
2023/06/22 06:27:48;;;;;;;12.05;11.55;;;;;;;;;;4980601;28;20129;-62
2023/06/22 06:30:14;;;;;;;11.90;11.40;;;;;;;;;;4984647;28;20047;-62
2023/06/22 06:32:41;;;;;;;11.90;11.40;;;;;;;;;;4984911;28;20035;-62
2023/06/22 06:35:07;;;;;;;11.55;11.05;;;;;;;;;;4983036;28;20583;-61
2023/06/22 06:37:35;;;;;;;12.10;11.60;;;;;;;;;;4986901;28;20493;-61
2023/06/22 06:40:00;;;;;;;12.10;11.60;;;;;;;;;;4985623;28;20038;-62
2023/06/22 06:42:26;;;;;;;11.53;11.03;;;;;;;;;;4985418;28;20081;-61
2023/06/22 06:44:51;;;;;;;12.07;11.57;;;;;;;;;;4988061;28;20398;-61
2023/06/22 06:47:16;;;;;;;12.30;11.80;;;;;;;;;;4974473;28;20069;-65
2023/06/22 06:49:42;;;;;;;12.18;11.68;;;;;;;;;;4983850;28;20286;-66
2023/06/22 06:52:08;;;;;;;11.70;11.20;;;;;;;;;;4985625;28;20634;-67
2023/06/22 06:54:33;;;;;;;11.82;11.32;;;;;;;;;;4976563;28;20478;-65
2023/06/22 06:56:58;;;;;;;11.67;11.17;;;;;;;;;;4984613;28;20033;-65
2023/06/22 06:59:23;;;;;;;11.90;11.40;;;;;;;;;;4975671;28;20618;-64
2023/06/22 07:01:49;;;;;;;11.87;11.37;;;;;;;;;;4990858;28;20105;-64
2023/06/22 07:04:14;;;;;;;11.87;11.37;;;;;;;;;;4985855;28;20027;-63
2023/06/22 07:06:39;;;;;;;11.83;11.33;;;;;;;;;;4991367;28;20053;-63
2023/06/22 07:09:05;;;;;;;11.97;11.47;;;;;;;;;;4991060;28;20530;-65
2023/06/22 07:11:30;;;;;;;11.87;11.37;;;;;;;;;;4989087;28;20079;-63
2023/06/22 07:13:55;;;;;;;11.70;11.20;;;;;;;;;;4995253;28;20254;-63
2023/06/22 07:16:21;;;;;;;11.90;11.40;;;;;;;;;;4987424;28;20050;-63
2023/06/22 07:18:46;;;;;;;12.05;11.55;;;;;;;;;;4994435;28;20251;-64
2023/06/22 07:21:11;;;;;;;12.70;12.10;;;;;;;;;;4993278;28;20022;-64
2023/06/22 07:23:36;;;;;;;12.07;11.57;;;;;;;;;;4991255;28;20050;-64
2023/06/22 07:26:02;;;;;;;12.00;11.50;;;;;;;;;;4991150;28;20789;-63
2023/06/22 07:28:27;;;;;;;11.90;11.40;;;;;;;;;;4988741;28;20134;-63
2023/06/22 07:30:53;;;;;;;12.10;11.60;;;;;;;;;;4991801;28;20354;-62
2023/06/22 07:33:19;;;;;;;11.68;11.18;;;;;;;;;;4991854;28;20393;-64
2023/06/22 07:35:44;;;;;;;11.68;11.18;;;;;;;;;;4983490;28;20087;-64
2023/06/22 07:38:10;;;;;;;11.95;11.45;;;;;;;;;;4995114;28;20030;-64
2023/06/22 07:40:35;;;;;;;12.13;11.63;;;;;;;;;;4994686;28;20053;-64
2023/06/22 07:43:01;;;;;;;12.18;11.68;;;;;;;;;;4991722;28;20402;-63
2023/06/22 07:45:26;;;;;;;12.77;12.18;;;;;;;;;;4974788;28;20038;-65
2023/06/22 07:47:51;;;;;;;12.03;11.53;;;;;;;;;;4990668;28;20034;-63
2023/06/22 07:50:17;;;;;;;11.97;11.47;;;;;;;;;;4993278;28;20061;-64
2023/06/22 07:52:42;;;;;;;12.03;11.53;;;;;;;;;;4994550;28;20010;-63
2023/06/22 07:55:07;;;;;;;11.97;11.47;;;;;;;;;;4992613;28;20526;-64
2023/06/22 07:57:33;;;;;;;11.65;11.15;;;;;;;;;;4987582;28;20026;-63
2023/06/22 08:00:04;;;;;;;12.88;12.27;;;;;;;;;;4990284;28;20029;-63
2023/06/22 08:02:29;;;;;;;12.93;12.32;;;;;;;;;;4983911;28;20026;-62
2023/06/22 08:04:55;;;;;;;12.97;12.37;;;;;;;;;;4988316;28;20529;-64
2023/06/22 08:07:20;;;;;;;12.45;11.85;;;;;;;;;;4985154;28;20125;-62
2023/06/22 08:09:46;;;;;;;12.00;11.50;;;;;;;;;;4982325;28;20118;-64
2023/06/22 08:12:12;;;;;;;12.07;11.57;;;;;;;;;;4983951;28;20023;-63
2023/06/22 08:14:38;;;;;;;11.90;11.40;;;;;;;;;;4980137;28;20025;-61
2023/06/22 08:17:03;;;;;;;11.60;11.10;;;;;;;;;;4991175;28;20030;-63
2023/06/22 08:19:29;;;;;;;11.95;11.45;;;;;;;;;;4989305;28;20398;-61
2023/06/22 08:21:54;;;;;;;12.43;11.82;;;;;;;;;;4986150;28;20065;-61
2023/06/22 08:24:19;;;;;;;11.70;11.20;;;;;;;;;;4990869;28;20031;-62
2023/06/22 08:26:46;;;;;;;12.50;11.90;;;;;;;;;;4987163;28;20162;-62
2023/06/22 08:29:11;;;;;;;12.23;11.63;;;;;;;;;;4984001;28;20780;-62
2023/06/22 08:31:36;;;;;;;12.00;11.50;;;;;;;;;;4981412;28;20035;-62
2023/06/22 08:34:02;;;;;;;12.47;11.87;;;;;;;;;;4982016;28;20034;-62
2023/06/22 08:36:37;;;;;;;12.40;11.80;;;;;;;;;;4994003;28;20276;-63
2023/06/22 08:39:03;;;;;;;12.40;11.80;;;;;;;;;;4983189;28;20034;-62
2023/06/22 08:41:29;;;;;;;12.65;12.05;;;;;;;;;;4992729;28;20034;-62
2023/06/22 08:43:54;;;;;;;12.50;11.90;;;;;;;;;;4988719;28;20052;-62
2023/06/22 08:46:23;;;;;;;13.02;12.43;;;;;;;;;;4992099;28;20034;-61
2023/06/22 08:48:48;;;;;;;13.18;12.57;;;;;;;;;;4992260;28;20029;-62
2023/06/22 08:51:13;;;;;;;12.05;11.55;;;;;;;;;;4993258;28;20359;-62
2023/06/22 08:53:39;;;;;;;12.02;11.52;;;;;;;;;;4993678;28;20466;-61
2023/06/22 08:56:04;;;;;;;12.07;11.50;;;;;;;;;;4993895;28;20022;-61
2023/06/22 08:58:31;;;;;;;12.15;11.60;;;;;;;;;;4995095;28;20030;-62
2023/06/22 09:01:01;;;;;;;12.50;11.90;;;;;;;;;;4990920;28;20039;-62
2023/06/22 09:03:26;;;;;;;12.63;12.02;;;;;;;;;;4998191;28;20393;-61
2023/06/22 09:05:52;;;;;;;12.70;12.10;;;;;;;;;;4995798;28;20146;-61
2023/06/22 09:08:17;;;;;;;12.00;11.50;;;;;;;;;;4993474;28;20034;-62
2023/06/22 09:10:42;;;;;;;12.55;11.95;;;;;;;;;;4993639;28;20027;-62
2023/06/22 09:13:08;;;;;;;11.80;11.30;;;;;;;;;;4993220;28;20030;-61
2023/06/22 09:15:34;;;;;;;12.93;12.32;;;;;;;;;;4991656;28;20295;-61
2023/06/22 09:17:59;;;;;;;12.45;11.85;;;;;;;;;;4993462;28;20436;-62
2023/06/22 09:20:25;;;;;;;12.40;11.80;;;;;;;;;;4993125;28;20141;-62
2023/06/22 09:22:50;;;;;;;12.30;11.70;;;;;;;;;;4992653;28;20026;-62
2023/06/22 09:25:16;;;;;;;11.85;11.35;;;;;;;;;;4993603;28;20049;-63
2023/06/22 09:27:41;;;;;;;12.20;11.60;;;;;;;;;;4992554;28;20430;-63
2023/06/22 09:30:07;;;;;;;12.27;11.70;;;;;;;;;;4982512;28;20109;-62
2023/06/22 09:32:32;;;;;;;11.77;11.27;;;;;;;;;;4988556;28;20390;-61
2023/06/22 09:34:57;;;;;;;12.57;11.97;;;;;;;;;;4993054;28;20026;-62
2023/06/22 09:37:23;;;;;;;12.40;11.80;;;;;;;;;;4992770;28;20730;-61
2023/06/22 09:39:48;;;;;;;12.50;11.90;;;;;;;;;;4992481;28;20252;-62
2023/06/22 09:42:13;;;;;;;11.53;11.03;;;;;;;;;;4986817;28;20022;-63
2023/06/22 09:44:39;;;;;;;11.80;11.30;;;;;;;;;;4992743;28;20639;-62
2023/06/22 09:47:04;;;;;;;12.27;11.68;;;;;;;;;;4979430;28;20033;-63
2023/06/22 09:49:30;;;;;;;12.07;11.57;;;;;;;;;;5001164;28;20030;-63
2023/06/22 09:51:55;;;;;;;12.27;11.68;;;;;;;;;;4987990;28;20105;-63
2023/06/22 09:54:20;;;;;;;11.88;11.38;;;;;;;;;;4991826;28;20474;-62
2023/06/22 09:56:46;;;;;;;12.60;12.00;;;;;;;;;;4981768;28;20027;-62
2023/06/22 09:59:11;;;;;;;11.90;11.40;;;;;;;;;;4992194;28;20022;-62
2023/06/22 10:01:36;;;;;;;12.43;11.83;;;;;;;;;;4995417;28;20611;-63
2023/06/22 10:04:02;;;;;;;12.32;11.73;;;;;;;;;;4992958;28;20248;-62
2023/06/22 10:06:27;;;;;;;12.60;12.00;;;;;;;;;;4992401;28;20014;-62
2023/06/22 10:08:53;;;;;;;12.63;12.02;;;;;;;;;;4992043;28;20417;-62
2023/06/22 10:11:18;;;;;;;12.63;12.02;;;;;;;;;;4989975;28;20053;-62
2023/06/22 10:13:44;;;;;;;12.77;12.18;;;;;;;;;;4993499;28;20062;-63
2023/06/22 10:16:09;;;;;;;12.18;11.57;;;;;;;;;;4986304;28;20022;-63
2023/06/22 10:18:34;;;;;;;12.15;11.60;;;;;;;;;;4989643;28;20014;-63
2023/06/22 10:20:59;;;;;;;12.88;12.27;;;;;;;;;;4991757;28;20026;-62
2023/06/22 10:23:25;;;;;;;11.48;10.98;;;;;;;;;;4988469;28;20108;-62
2023/06/22 10:25:50;;;;;;;12.50;11.90;;;;;;;;;;4986628;28;20026;-61
2023/06/22 10:28:15;;;;;;;12.57;11.97;;;;;;;;;;4991224;28;20042;-63
2023/06/22 10:30:41;;;;;;;11.60;11.10;;;;;;;;;;4992253;28;20272;-63
2023/06/22 10:33:07;;;;;;;11.88;11.38;;;;;;;;;;4990222;28;20492;-63
2023/06/22 10:35:32;;;;;;;12.43;11.82;;;;;;;;;;4991728;28;20019;-61
2023/06/22 10:37:57;;;;;;;12.02;11.52;;;;;;;;;;4989115;28;20041;-64
2023/06/22 10:40:23;;;;;;;11.70;11.20;;;;;;;;;;4991450;28;20465;-62
2023/06/22 10:42:50;;;;;;;12.32;11.73;;;;;;;;;;4991505;28;20022;-61
2023/06/22 10:45:15;;;;;;;11.80;11.30;;;;;;;;;;4992095;28;20034;-62
2023/06/22 10:47:42;;;;;;;11.90;11.40;;;;;;;;;;4989192;28;20092;-62
2023/06/22 10:50:07;;;;;;;11.88;11.38;;;;;;;;;;4991336;28;20031;-62
2023/06/22 10:52:33;;;;;;;11.90;11.40;;;;;;;;;;4992227;28;20021;-62
2023/06/22 10:54:58;;;;;;;12.45;11.85;;;;;;;;;;4991594;28;20018;-63
2023/06/22 10:57:23;;;;;;;11.70;11.20;;;;;;;;;;4991977;28;20102;-62
2023/06/22 10:59:49;;;;;;;11.95;11.45;;;;;;;;;;4991129;28;20022;-62
2023/06/22 11:02:14;;;;;;;11.60;11.10;;;;;;;;;;4991895;28;20038;-62
2023/06/22 11:04:39;;;;;;;11.90;11.40;;;;;;;;;;4989600;28;20030;-62
2023/06/22 11:07:05;;;;;;;12.33;11.73;;;;;;;;;;4989462;28;20034;-62
2023/06/22 11:09:31;;;;;;;11.75;11.25;;;;;;;;;;4991923;28;20330;-62
2023/06/22 11:11:56;;;;;;;11.93;11.40;;;;;;;;;;4990537;28;20022;-63
2023/06/22 11:14:22;;;;;;;11.90;11.40;;;;;;;;;;4989773;28;20110;-62
2023/06/22 11:16:47;;;;;;;11.80;11.30;;;;;;;;;;4991677;28;20022;-63
2023/06/22 11:19:13;;;;;;;12.18;11.57;;;;;;;;;;4990975;28;20073;-62
2023/06/22 11:21:38;;;;;;;12.57;11.98;;;;;;;;;;4983438;28;20019;-64
2023/06/22 11:24:04;;;;;;;12.40;11.80;;;;;;;;;;4992401;28;20030;-62
2023/06/22 11:26:29;;;;;;;11.80;11.30;;;;;;;;;;4991632;28;20018;-62
2023/06/22 11:28:55;;;;;;;12.30;11.70;;;;;;;;;;4986059;28;20480;-63
2023/06/22 11:31:20;;;;;;;12.00;11.48;;;;;;;;;;4991178;28;20034;-62
2023/06/22 11:33:46;;;;;;;11.53;11.03;;;;;;;;;;4990614;28;20019;-63
2023/06/22 11:36:12;;;;;;;11.82;11.32;;;;;;;;;;4991459;28;20240;-63
2023/06/22 11:38:39;;;;;;;11.80;11.30;;;;;;;;;;4997155;28;20071;-61
2023/06/22 11:41:07;;;;;;;11.68;11.18;;;;;;;;;;4989697;28;20049;-61
2023/06/22 11:43:33;;;;;;;11.32;10.82;;;;;;;;;;4991460;28;20022;-62
2023/06/22 11:45:59;;;;;;;12.30;11.70;;;;;;;;;;4993337;28;20026;-62
2023/06/22 11:48:24;;;;;;;11.70;11.20;;;;;;;;;;4995709;28;20137;-62
2023/06/22 11:50:50;;;;;;;12.30;11.70;;;;;;;;;;4993557;28;20026;-60
2023/06/22 11:53:17;;;;;;;11.48;10.98;;;;;;;;;;4992706;28;20030;-62
2023/06/22 11:55:42;;;;;;;11.30;10.80;;;;;;;;;;4994495;28;20023;-62
2023/06/22 11:58:08;;;;;;;11.68;11.18;;;;;;;;;;4996387;28;20037;-62
2023/06/22 12:00:33;;;;;;;11.57;11.07;;;;;;;;;;4994847;28;20102;-61
2023/06/22 12:02:59;;;;;;;12.38;11.77;;;;;;;;;;4997718;28;20076;-63
2023/06/22 12:05:24;;;;;;;12.40;11.80;;;;;;;;;;4997949;28;20126;-61
2023/06/22 12:07:50;;;;;;;12.32;11.73;;;;;;;;;;4994444;28;20042;-62
2023/06/22 12:10:15;;;;;;;11.88;11.38;;;;;;;;;;4993454;28;20462;-63
2023/06/22 12:12:41;;;;;;;11.40;10.90;;;;;;;;;;4996110;28;20023;-63
2023/06/22 12:15:07;;;;;;;11.93;11.43;;;;;;;;;;4988130;28;20026;-63
2023/06/22 12:17:32;;;;;;;11.95;11.45;;;;;;;;;;4994823;28;20033;-61
2023/06/22 12:19:58;;;;;;;12.15;11.55;;;;;;;;;;4994564;28;20382;-62
2023/06/22 12:22:23;;;;;;;11.98;11.48;;;;;;;;;;4994990;28;20034;-62
2023/06/22 12:24:49;;;;;;;11.68;11.18;;;;;;;;;;4994517;28;20402;-63
2023/06/22 12:27:16;;;;;;;12.27;11.67;;;;;;;;;;4993752;28;20030;-62
2023/06/22 12:29:41;;;;;;;12.15;11.55;;;;;;;;;;4993043;28;20414;-63
2023/06/22 12:32:07;;;;;;;11.80;11.30;;;;;;;;;;4994218;28;20574;-62
2023/06/22 12:34:32;;;;;;;11.80;11.30;;;;;;;;;;4994179;28;20481;-63
2023/06/22 12:36:57;;;;;;;11.98;11.40;;;;;;;;;;4989825;28;20034;-62
2023/06/22 12:39:23;;;;;;;12.13;11.52;;;;;;;;;;4994018;28;20391;-63
2023/06/22 12:41:48;;;;;;;12.20;11.60;;;;;;;;;;4993814;28;20023;-63
2023/06/22 12:44:13;;;;;;;11.40;10.90;;;;;;;;;;4993812;28;20026;-62
2023/06/22 12:46:39;;;;;;;11.50;11.00;;;;;;;;;;4994007;28;20026;-62
2023/06/22 12:49:04;;;;;;;12.73;12.13;;;;;;;;;;4999671;28;20404;-62
2023/06/22 12:51:30;;;;;;;11.82;11.32;;;;;;;;;;4992740;28;20275;-63
2023/06/22 12:53:55;;;;;;;12.32;11.73;;;;;;;;;;4988747;28;20026;-63
2023/06/22 12:56:21;;;;;;;11.80;11.30;;;;;;;;;;4990642;28;20466;-62
2023/06/22 12:58:46;;;;;;;11.77;11.27;;;;;;;;;;4991345;28;20085;-61
2023/06/22 13:01:12;;;;;;;11.70;11.20;;;;;;;;;;4989318;28;20450;-61
2023/06/22 13:03:37;;;;;;;11.90;11.40;;;;;;;;;;4993570;28;20026;-62
2023/06/22 13:06:03;;;;;;;12.23;11.63;;;;;;;;;;4991477;28;20104;-63
2023/06/22 13:08:28;;;;;;;12.02;11.48;;;;;;;;;;4987481;28;20256;-62
2023/06/22 13:10:54;;;;;;;12.05;11.45;;;;;;;;;;4992140;28;20394;-63
2023/06/22 13:13:19;;;;;;;11.75;11.25;;;;;;;;;;4993287;28;20026;-62
2023/06/22 13:15:44;;;;;;;11.70;11.20;;;;;;;;;;4991112;28;20492;-62
2023/06/22 13:18:10;;;;;;;11.30;10.80;;;;;;;;;;4993791;28;20087;-62
2023/06/22 13:20:35;;;;;;;12.07;11.50;;;;;;;;;;4988116;28;20704;-62
2023/06/22 13:23:00;;;;;;;12.73;12.13;;;;;;;;;;4994480;28;20050;-61
2023/06/22 13:25:26;;;;;;;11.80;11.30;;;;;;;;;;4992473;28;20252;-63
2023/06/22 13:27:51;;;;;;;12.20;11.63;;;;;;;;;;4992115;28;20719;-63
2023/06/22 13:30:17;;;;;;;11.93;11.40;;;;;;;;;;4983937;28;20030;-62
2023/06/22 13:32:42;;;;;;;11.90;11.40;;;;;;;;;;4987848;28;20058;-61
2023/06/22 13:35:09;;;;;;;12.00;11.43;;;;;;;;;;4993154;28;20034;-63
2023/06/22 13:37:34;;;;;;;12.20;11.60;;;;;;;;;;4992278;28;20073;-62
2023/06/22 13:39:59;;;;;;;12.63;12.03;;;;;;;;;;4992586;28;20470;-62
2023/06/22 13:42:24;;;;;;;12.00;11.50;;;;;;;;;;4992213;28;20250;-62
2023/06/22 13:44:50;;;;;;;12.25;11.65;;;;;;;;;;4991437;28;20620;-61
2023/06/22 13:47:15;;;;;;;12.53;11.93;;;;;;;;;;4990986;28;20037;-63
2023/06/22 13:49:40;;;;;;;11.80;11.30;;;;;;;;;;5004616;28;20244;-62
2023/06/22 13:52:10;;;;;;;12.10;11.50;;;;;;;;;;4987636;28;20294;-63
2023/06/22 13:54:35;;;;;;;11.70;11.20;;;;;;;;;;4984186;28;20026;-63
2023/06/22 13:57:00;;;;;;;11.80;11.30;;;;;;;;;;4988496;28;20018;-61
2023/06/22 13:59:27;;;;;;;11.57;11.07;;;;;;;;;;4985935;28;20011;-61
2023/06/22 14:01:53;;;;;;;12.27;11.68;;;;;;;;;;4989495;28;20022;-62
2023/06/22 14:04:18;;;;;;;11.40;10.90;;;;;;;;;;4992602;28;20029;-62
2023/06/22 14:06:43;;;;;;;12.30;11.70;;;;;;;;;;4991241;28;20023;-62
2023/06/22 14:09:09;;;;;;;12.10;11.50;;;;;;;;;;4991281;28;20022;-61